createdAt,value
2023-04-24T00:00:19.592Z,99956.95
2023-04-24T00:02:48.435Z,99951.70
2023-04-24T00:05:15.614Z,99952.36
2023-04-24T00:07:42.560Z,99952.92
2023-04-24T00:10:09.705Z,99950.73
2023-04-24T00:12:36.568Z,99952.41
2023-04-24T00:15:05.404Z,99951.13
2023-04-24T00:17:32.418Z,99950.58
2023-04-24T00:19:59.165Z,99949.85
2023-04-24T00:22:28.009Z,99952.55
2023-04-24T00:24:55.059Z,99948.55
2023-04-24T00:27:21.903Z,99946.60
2023-04-24T00:29:48.836Z,99947.91
2023-04-24T00:32:15.770Z,99943.58
2023-04-24T00:34:42.469Z,99947.15
2023-04-24T00:37:09.404Z,99945.74
2023-04-24T00:39:37.657Z,99944.67
2023-04-24T00:42:06.683Z,99948.35
2023-04-24T00:44:35.063Z,99952.36
2023-04-24T00:47:01.848Z,99953.50
2023-04-24T00:49:30.335Z,99954.33
2023-04-24T00:51:57.222Z,99952.92
2023-04-24T00:54:23.889Z,99949.14
2023-04-24T00:56:52.319Z,99947.41
2023-04-24T00:59:19.254Z,99948.45
2023-04-24T01:01:46.241Z,99949.04
2023-04-24T01:04:13.366Z,99947.84
2023-04-24T01:06:40.459Z,99948.13
2023-04-24T01:09:08.982Z,99947.23
2023-04-24T01:11:37.413Z,99942.61
2023-04-24T01:14:05.395Z,99941.39
2023-04-24T01:16:32.056Z,99937.43
2023-04-24T01:18:58.800Z,99937.27
2023-04-24T01:21:28.097Z,99937.83
2023-04-24T01:23:56.110Z,99935.13
2023-04-24T01:26:23.069Z,99937.02
2023-04-24T01:28:50.020Z,99937.59
2023-04-24T01:31:16.925Z,99936.55
2023-04-24T01:33:44.358Z,99935.56
2023-04-24T01:36:11.521Z,99933.84
2023-04-24T01:38:38.276Z,99931.30
2023-04-24T01:41:04.966Z,99930.76
2023-04-24T01:43:32.345Z,99929.95
2023-04-24T01:45:59.165Z,99928.17
2023-04-24T01:48:25.924Z,99925.05
2023-04-24T01:50:52.656Z,99926.98
2023-04-24T01:53:20.540Z,99926.98
2023-04-24T01:55:47.212Z,99920.89
2023-04-24T01:58:14.011Z,99922.64
2023-04-24T02:00:41.634Z,99920.89
2023-04-24T02:03:08.672Z,99921.67
2023-04-24T02:05:35.485Z,99918.80
2023-04-24T02:08:03.290Z,99915.05
2023-04-24T02:10:30.234Z,99911.98
2023-04-24T02:13:00.139Z,99907.34
2023-04-24T02:15:26.807Z,99907.80
2023-04-24T02:17:53.725Z,99909.16
2023-04-24T02:20:20.479Z,99907.16
2023-04-24T02:22:47.435Z,99906.30
2023-04-24T02:25:14.127Z,99904.39
2023-04-24T02:27:41.380Z,99907.65
2023-04-24T02:30:09.106Z,99904.45
2023-04-24T02:32:36.940Z,99902.70
2023-04-24T02:35:03.910Z,99905.58
2023-04-24T02:37:31.015Z,99907.44
2023-04-24T02:39:57.730Z,99901.55
2023-04-24T02:42:24.628Z,99903.91
2023-04-24T02:44:51.948Z,99902.14
2023-04-24T02:47:18.769Z,99899.84
2023-04-24T02:49:46.382Z,99897.39
2023-04-24T02:52:15.139Z,99900.90
2023-04-24T02:54:41.940Z,99900.37
2023-04-24T02:57:08.766Z,99898.70
2023-04-24T02:59:35.983Z,99897.44
2023-04-24T03:02:02.831Z,99896.55
2023-04-24T03:04:30.125Z,99890.27
2023-04-24T03:06:57.514Z,99894.11
2023-04-24T03:09:24.562Z,99891.31
2023-04-24T03:11:51.419Z,99890.17
2023-04-24T03:14:18.230Z,99893.76
2023-04-24T03:16:45.051Z,99891.32
2023-04-24T03:19:12.030Z,99889.21
2023-04-24T03:21:45.528Z,99889.55
2023-04-24T03:24:12.291Z,99889.84
2023-04-24T03:26:39.553Z,99891.96
2023-04-24T03:29:33.062Z,99893.58
2023-04-24T03:32:00.423Z,99897.66
2023-04-24T03:34:27.790Z,99900.18
2023-04-24T03:36:56.225Z,99900.31
2023-04-24T03:39:23.124Z,99906.70
2023-04-24T03:41:54.553Z,99903.09
2023-04-24T03:44:25.660Z,99905.11
2023-04-24T03:46:52.382Z,99904.87
2023-04-24T03:49:19.978Z,99907.14
2023-04-24T03:51:47.622Z,99905.30
2023-04-24T03:54:20.299Z,99907.47
2023-04-24T03:56:47.521Z,99910.77
2023-04-24T03:59:15.016Z,99912.98
2023-04-24T04:01:44.273Z,99909.72
2023-04-24T04:04:16.286Z,99910.41
2023-04-24T04:06:44.745Z,99914.16
2023-04-24T04:09:11.902Z,99914.73
2023-04-24T04:11:40.744Z,99914.77
2023-04-24T04:14:07.656Z,99914.34
2023-04-24T04:16:36.920Z,99916.11
2023-04-24T04:19:04.487Z,99915.27
2023-04-24T04:21:32.566Z,99918.50
2023-04-24T04:24:10.078Z,99917.58
2023-04-24T04:26:41.087Z,99913.73
2023-04-24T04:29:10.698Z,99916.21
2023-04-24T04:31:40.760Z,99916.48
2023-04-24T04:34:12.069Z,99920.29
2023-04-24T04:36:40.415Z,99923.39
2023-04-24T04:39:19.745Z,99920.48
2023-04-24T04:42:29.760Z,99921.45
2023-04-24T04:44:57.743Z,99911.65
2023-04-24T04:47:32.202Z,99916.20
2023-04-24T04:49:59.248Z,99916.28
2023-04-24T04:52:27.619Z,99913.30
2023-04-24T04:55:00.875Z,99909.36
2023-04-24T04:57:38.810Z,99909.60
2023-04-24T05:00:07.337Z,99903.89
2023-04-24T05:02:42.661Z,99900.10
2023-04-24T05:05:09.776Z,99902.73
2023-04-24T05:07:36.706Z,99905.27
2023-04-24T05:10:03.794Z,99903.18
2023-04-24T05:12:31.404Z,99907.35
2023-04-24T05:14:58.833Z,99902.67
2023-04-24T05:17:26.289Z,99904.67
2023-04-24T05:19:53.690Z,99905.33
2023-04-24T05:22:21.392Z,99902.31
2023-04-24T05:24:50.986Z,99900.52
2023-04-24T05:27:44.982Z,99901.39
2023-04-24T05:30:14.843Z,99900.83
2023-04-24T05:32:42.027Z,99902.33
2023-04-24T05:35:08.890Z,99902.54
2023-04-24T05:37:36.435Z,99900.05
2023-04-24T05:40:05.524Z,99902.46
2023-04-24T05:42:32.676Z,99898.54
2023-04-24T05:44:59.696Z,99899.52
2023-04-24T05:47:27.352Z,99898.08
2023-04-24T05:49:54.544Z,99896.48
2023-04-24T05:52:21.608Z,99892.86
2023-04-24T05:54:48.702Z,99890.83
2023-04-24T05:57:21.352Z,99894.23
2023-04-24T05:59:58.292Z,99897.30
2023-04-24T06:02:25.668Z,99895.57
2023-04-24T06:04:53.226Z,99900.52
2023-04-24T06:07:23.534Z,99893.08
2023-04-24T06:09:50.409Z,99899.09
2023-04-24T06:12:18.056Z,99896.80
2023-04-24T06:14:55.897Z,99897.04
2023-04-24T06:17:45.353Z,99892.52
2023-04-24T06:20:12.468Z,99890.98
2023-04-24T06:22:40.628Z,99897.83
2023-04-24T06:25:09.621Z,99895.44
2023-04-24T06:27:37.511Z,99896.71
2023-04-24T06:30:05.020Z,99893.95
2023-04-24T06:32:32.889Z,99892.46
2023-04-24T06:35:07.550Z,99895.91
2023-04-24T06:37:35.578Z,99893.94
2023-04-24T06:40:08.260Z,99894.77
2023-04-24T06:42:36.987Z,99893.66
2023-04-24T06:45:06.209Z,99892.56
2023-04-24T06:47:35.821Z,99891.66
2023-04-24T06:50:03.483Z,99891.88
2023-04-24T06:52:33.892Z,99896.00
2023-04-24T06:55:03.259Z,99891.35
2023-04-24T06:57:31.984Z,99895.70
2023-04-24T07:00:03.034Z,99895.65
2023-04-24T07:02:32.777Z,99899.30
2023-04-24T07:04:59.486Z,99899.54
2023-04-24T07:07:28.136Z,99900.48
2023-04-24T07:09:56.831Z,99899.09
2023-04-24T07:12:24.142Z,99901.73
2023-04-24T07:14:51.882Z,99900.66
2023-04-24T07:17:19.363Z,99900.55
2023-04-24T07:19:46.769Z,99900.55
2023-04-24T07:22:17.288Z,99899.52
2023-04-24T07:24:47.733Z,99899.20
2023-04-24T07:27:15.394Z,99898.17
2023-04-24T07:29:43.103Z,99899.30
2023-04-24T07:32:11.775Z,99898.85
2023-04-24T07:34:38.691Z,99898.14
2023-04-24T07:37:06.803Z,99896.07
2023-04-24T07:39:34.968Z,99897.17
2023-04-24T07:42:03.090Z,99899.44
2023-04-24T07:44:33.660Z,99897.70
2023-04-24T07:47:01.432Z,99894.91
2023-04-24T07:49:30.354Z,99891.07
2023-04-24T07:51:57.579Z,99892.67
2023-04-24T07:54:27.020Z,99891.86
2023-04-24T07:56:54.215Z,99893.32
2023-04-24T07:59:21.611Z,99890.87
2023-04-24T08:01:52.640Z,99896.92
2023-04-24T08:04:19.831Z,99891.67
2023-04-24T08:07:12.468Z,99893.45
2023-04-24T08:09:46.491Z,99890.09
2023-04-24T08:12:22.449Z,99886.16
2023-04-24T08:14:49.574Z,99888.05
2023-04-24T08:17:17.769Z,99884.03
2023-04-24T08:19:48.658Z,99879.46
2023-04-24T08:22:16.156Z,99882.26
2023-04-24T08:24:44.503Z,99881.52
2023-04-24T08:27:15.374Z,99878.10
2023-04-24T08:29:42.923Z,99875.86
2023-04-24T08:32:10.250Z,99885.36
2023-04-24T08:34:37.528Z,99875.52
2023-04-24T08:37:09.290Z,99872.63
2023-04-24T08:39:38.480Z,99882.89
2023-04-24T08:42:08.478Z,99877.52
2023-04-24T08:44:36.400Z,99867.02
2023-04-24T08:47:03.522Z,99863.38
2023-04-24T08:49:30.702Z,99866.75
2023-04-24T08:52:00.638Z,99854.70
2023-04-24T08:54:30.946Z,99847.09
2023-04-24T08:57:04.345Z,99839.85
2023-04-24T08:59:31.996Z,99840.27
2023-04-24T09:02:00.188Z,99843.63
2023-04-24T09:04:27.622Z,99838.70
2023-04-24T09:06:57.319Z,99837.06
2023-04-24T09:09:25.205Z,99838.14
2023-04-24T09:11:54.504Z,99841.05
2023-04-24T09:14:24.111Z,99838.73
2023-04-24T09:16:51.798Z,99834.88
2023-04-24T09:19:19.066Z,99828.82
2023-04-24T09:21:46.708Z,99830.63
2023-04-24T09:24:18.228Z,99834.65
2023-04-24T09:26:47.355Z,99816.34
2023-04-24T09:29:15.958Z,99811.58
2023-04-24T09:31:43.151Z,99819.36
2023-04-24T09:34:10.805Z,99812.13
2023-04-24T09:36:41.910Z,99818.21
2023-04-24T09:39:15.872Z,99818.02
2023-04-24T09:41:50.398Z,99818.10
2023-04-24T09:44:24.593Z,99809.27
2023-04-24T09:46:56.045Z,99814.20
2023-04-24T09:49:25.099Z,99803.41
2023-04-24T09:51:52.342Z,99804.48
2023-04-24T09:54:21.623Z,99804.64
2023-04-24T09:56:50.029Z,99808.31
2023-04-24T09:59:20.072Z,99812.45
2023-04-24T10:02:07.229Z,99808.92
2023-04-24T10:04:34.985Z,99806.85
2023-04-24T10:07:04.765Z,99804.69
2023-04-24T10:09:33.280Z,99801.15
2023-04-24T10:12:09.242Z,99797.25
2023-04-24T10:14:38.051Z,99792.64
2023-04-24T10:17:06.820Z,99788.96
2023-04-24T10:19:37.688Z,99783.00
2023-04-24T10:22:05.991Z,99781.06
2023-04-24T10:24:42.156Z,99778.12
2023-04-24T10:27:10.407Z,99781.95
2023-04-24T10:29:37.927Z,99786.09
2023-04-24T10:32:11.867Z,99785.27
2023-04-24T10:34:39.335Z,99779.41
2023-04-24T10:37:06.988Z,99776.52
2023-04-24T10:39:34.442Z,99782.13
2023-04-24T10:42:02.292Z,99783.27
2023-04-24T10:44:41.693Z,99785.51
2023-04-24T10:47:14.747Z,99786.73
2023-04-24T10:49:42.601Z,99782.09
2023-04-24T10:52:15.233Z,99779.60
2023-04-24T10:54:45.917Z,99773.29
2023-04-24T10:57:25.454Z,99774.86
2023-04-24T11:00:12.021Z,99767.65
2023-04-24T11:02:44.857Z,99763.73
2023-04-24T11:05:13.014Z,99764.21
2023-04-24T11:08:40.333Z,99757.91
2023-04-24T11:11:09.004Z,99752.34
2023-04-24T11:13:58.328Z,99741.15
2023-04-24T11:16:42.899Z,99743.44
2023-04-24T11:19:27.642Z,99752.03
2023-04-24T11:22:02.576Z,99752.74
2023-04-24T11:24:36.288Z,99750.98
2023-04-24T11:27:06.148Z,99750.70
2023-04-24T11:29:56.044Z,99745.64
2023-04-24T11:32:38.692Z,99747.89
2023-04-24T11:35:59.504Z,99749.36
2023-04-24T11:38:35.308Z,99749.41
2023-04-24T11:41:06.629Z,99743.92
2023-04-24T11:43:34.247Z,99740.27
2023-04-24T11:46:01.407Z,99740.33
2023-04-24T11:48:28.724Z,99737.29
2023-04-24T11:50:55.995Z,99736.21
2023-04-24T11:53:23.817Z,99733.45
2023-04-24T11:55:52.126Z,99746.69
2023-04-24T11:58:24.398Z,99749.83
2023-04-24T12:00:58.797Z,99757.13
2023-04-24T12:03:26.847Z,99754.55
2023-04-24T12:06:05.409Z,99754.59
2023-04-24T12:08:33.229Z,99763.22
2023-04-24T12:11:04.212Z,99758.52
2023-04-24T12:13:31.514Z,99752.77
2023-04-24T12:15:59.516Z,99750.08
2023-04-24T12:18:26.957Z,99752.45
2023-04-24T12:23:38.181Z,99755.45
2023-04-24T12:26:06.524Z,99752.45
2023-04-24T12:28:38.258Z,99751.92
2023-04-24T12:31:05.262Z,99757.92
2023-04-24T12:33:33.908Z,99752.85
2023-04-24T12:36:02.373Z,99750.88
2023-04-24T12:38:40.454Z,99751.92
2023-04-24T12:41:13.712Z,99769.61
2023-04-24T12:43:52.919Z,99787.81
2023-04-24T12:46:22.532Z,99770.96
2023-04-24T12:48:50.132Z,99762.30
2023-04-24T12:51:21.629Z,99756.26
2023-04-24T12:53:49.972Z,99746.86
2023-04-24T12:56:17.782Z,99745.83
2023-04-24T12:58:44.778Z,99744.41
2023-04-24T13:01:14.765Z,99746.98
2023-04-24T13:03:42.303Z,99742.77
2023-04-24T13:06:18.527Z,99737.39
2023-04-24T13:08:45.727Z,99741.17
2023-04-24T13:11:12.505Z,99735.38
2023-04-24T13:13:39.748Z,99732.45
2023-04-24T13:16:07.732Z,99738.20
2023-04-24T13:18:35.391Z,99722.68
2023-04-24T13:21:02.662Z,99721.48
2023-04-24T13:23:30.197Z,99714.52
2023-04-24T13:26:01.604Z,99719.95
2023-04-24T13:28:31.460Z,99716.76
2023-04-24T13:31:00.934Z,99716.48
2023-04-24T13:33:30.061Z,99717.69
2023-04-24T13:35:57.130Z,99708.42
2023-04-24T13:38:24.567Z,99699.97
2023-04-24T13:40:55.971Z,99699.80
2023-04-24T13:43:25.585Z,99700.93
2023-04-24T13:45:53.114Z,99699.58
2023-04-24T13:48:24.356Z,99700.97
2023-04-24T13:50:52.339Z,99693.75
2023-04-24T13:53:20.378Z,99693.48
2023-04-24T13:55:48.811Z,99696.55
2023-04-24T13:58:16.979Z,99694.52
2023-04-24T14:00:43.879Z,99697.01
2023-04-24T14:03:13.285Z,99698.96
2023-04-24T14:05:45.263Z,99698.86
2023-04-24T14:08:12.751Z,99698.41
2023-04-24T14:10:39.780Z,99694.70
2023-04-24T14:13:06.873Z,99689.27
2023-04-24T14:15:33.875Z,99687.27
2023-04-24T14:18:01.032Z,99680.11
2023-04-24T14:20:27.988Z,99682.66
2023-04-24T14:22:55.311Z,99680.59
2023-04-24T14:25:26.458Z,99672.41
2023-04-24T14:27:53.474Z,99672.24
2023-04-24T14:30:20.956Z,99674.41
2023-04-24T14:32:51.466Z,99672.67
2023-04-24T14:35:22.548Z,99673.23
2023-04-24T14:37:50.245Z,99674.81
2023-04-24T14:42:49.152Z,99676.52
2023-04-24T14:45:16.874Z,99671.23
2023-04-24T14:47:45.983Z,99670.52
2023-04-24T14:50:14.564Z,99663.52
2023-04-24T14:52:46.929Z,99662.85
2023-04-24T14:55:15.052Z,99663.54
2023-04-24T14:57:42.853Z,99658.60
2023-04-24T15:00:11.808Z,99657.67
2023-04-24T15:02:42.306Z,99652.73
2023-04-24T15:05:11.074Z,99649.66
2023-04-24T15:07:39.013Z,99651.98
2023-04-24T15:10:07.448Z,99649.95
2023-04-24T15:12:35.158Z,99648.27
2023-04-24T15:15:03.854Z,99650.02
2023-04-24T15:17:30.962Z,99643.13
2023-04-24T15:19:58.008Z,99641.59
2023-04-24T15:22:24.997Z,99638.87
2023-04-24T15:24:51.986Z,99641.24
2023-04-24T15:27:19.028Z,99639.09
2023-04-24T15:29:45.996Z,99635.99
2023-04-24T15:32:14.476Z,99634.17
2023-04-24T15:34:41.234Z,99632.24
2023-04-24T15:37:08.542Z,99630.95
2023-04-24T15:39:38.059Z,99627.30
2023-04-24T15:42:06.285Z,99624.47
2023-04-24T15:44:33.137Z,99621.44
2023-04-24T15:47:01.131Z,99620.64
2023-04-24T15:49:27.938Z,99614.80
2023-04-24T15:51:54.758Z,99608.05
2023-04-24T15:54:21.800Z,99607.41
2023-04-24T15:56:50.349Z,99608.79
2023-04-24T15:59:18.421Z,99603.41
2023-04-24T16:01:46.699Z,99603.02
2023-04-24T16:04:14.199Z,99602.29
2023-04-24T16:06:41.418Z,99600.36
2023-04-24T16:09:09.670Z,99598.29
2023-04-24T16:11:37.161Z,99597.21
2023-04-24T16:14:04.328Z,99595.33
2023-04-24T16:16:31.638Z,99593.63
2023-04-24T16:18:58.531Z,99589.53
2023-04-24T16:21:25.856Z,99591.28
2023-04-24T16:23:52.843Z,99587.52
2023-04-24T16:26:19.839Z,99583.06
2023-04-24T16:28:48.386Z,99582.01
2023-04-24T16:31:16.232Z,99576.85
2023-04-24T16:33:43.469Z,99578.48
2023-04-24T16:36:12.818Z,99576.47
2023-04-24T16:38:40.271Z,99576.52
2023-04-24T16:41:06.976Z,99577.48
2023-04-24T16:43:35.409Z,99578.23
2023-04-24T16:46:02.563Z,99577.73
2023-04-24T16:48:32.105Z,99579.08
2023-04-24T16:51:00.208Z,99581.17
2023-04-24T16:53:27.177Z,99577.58
2023-04-24T16:55:54.270Z,99579.72
2023-04-24T16:58:21.161Z,99575.46
2023-04-24T17:00:48.090Z,99578.69
2023-04-24T17:03:16.506Z,99579.45
2023-04-24T17:05:43.333Z,99579.60
2023-04-24T17:08:10.671Z,99577.23
2023-04-24T17:10:38.510Z,99576.86
2023-04-24T17:13:05.443Z,99583.04
2023-04-24T17:15:33.165Z,99583.85
2023-04-24T17:18:00.513Z,99580.63
2023-04-24T17:20:29.785Z,99580.98
2023-04-24T17:22:57.689Z,99580.52
2023-04-24T17:25:25.050Z,99585.77
2023-04-24T17:27:52.948Z,99585.42
2023-04-24T17:30:20.011Z,99585.27
2023-04-24T17:32:46.982Z,99588.53
2023-04-24T17:35:13.809Z,99592.13
2023-04-24T17:37:41.023Z,99592.73
2023-04-24T17:40:08.535Z,99592.73
2023-04-24T17:42:40.780Z,99592.28
2023-04-24T17:45:08.538Z,99591.40
2023-04-24T17:47:36.727Z,99591.52
2023-04-24T17:50:03.684Z,99590.83
2023-04-24T17:52:32.040Z,99597.39
2023-04-24T17:54:59.156Z,99597.67
2023-04-24T17:57:26.720Z,99597.40
2023-04-24T17:59:53.643Z,99603.24
2023-04-24T18:02:23.742Z,99603.99
2023-04-24T18:04:52.217Z,99609.11
2023-04-24T18:07:21.224Z,99608.88
2023-04-24T18:09:47.983Z,99611.31
2023-04-24T18:12:15.565Z,99613.95
2023-04-24T18:14:42.455Z,99615.52
2023-04-24T18:17:09.373Z,99615.24
2023-04-24T18:19:36.509Z,99618.15
2023-04-24T18:22:04.404Z,99617.47
2023-04-24T18:24:31.888Z,99623.12
2023-04-24T18:26:58.693Z,99624.63
2023-04-24T18:29:27.368Z,99628.67
2023-04-24T18:31:54.249Z,99632.60
2023-04-24T18:34:21.908Z,99637.00
2023-04-24T18:36:48.677Z,99635.46
2023-04-24T18:39:15.840Z,99632.08
2023-04-24T18:41:42.545Z,99633.29
2023-04-24T18:44:11.074Z,99641.49
2023-04-24T18:46:40.778Z,99645.70
2023-04-24T18:49:08.441Z,99643.59
2023-04-24T18:51:46.638Z,99642.98
2023-04-24T18:54:19.727Z,99640.33
2023-04-24T18:56:46.727Z,99639.73
2023-04-24T18:59:13.672Z,99645.25
2023-04-24T19:01:41.223Z,99641.91
2023-04-24T19:04:08.156Z,99640.18
2023-04-24T19:06:35.255Z,99640.67
2023-04-24T19:09:02.140Z,99638.05
2023-04-24T19:11:29.310Z,99638.78
2023-04-24T19:13:58.556Z,99639.04
2023-04-24T19:16:26.131Z,99636.98
2023-04-24T19:18:52.857Z,99635.69
2023-04-24T19:21:20.267Z,99635.31
2023-04-24T19:23:49.777Z,99634.63
2023-04-24T19:26:16.723Z,99634.52
2023-04-24T19:28:45.601Z,99631.80
2023-04-24T19:31:13.277Z,99628.90
2023-04-24T19:33:40.227Z,99628.98
2023-04-24T19:36:07.189Z,99630.48
2023-04-24T19:38:34.220Z,99632.70
2023-04-24T19:41:01.193Z,99632.98
2023-04-24T19:43:27.994Z,99628.02
2023-04-24T19:45:57.173Z,99629.14
2023-04-24T19:48:24.278Z,99625.98
2023-04-24T19:50:52.198Z,99622.48
2023-04-24T19:53:21.417Z,99624.88
2023-04-24T19:55:48.464Z,99618.92
2023-04-24T19:58:15.919Z,99620.02
2023-04-24T20:00:43.089Z,99622.15
2023-04-24T20:03:13.742Z,99622.20
2023-04-24T20:05:48.850Z,99619.73
2023-04-24T20:08:15.720Z,99619.98
2023-04-24T20:10:43.387Z,99617.21
2023-04-24T20:13:11.729Z,99616.73
2023-04-24T20:15:38.879Z,99615.51
2023-04-24T20:18:05.760Z,99617.23
2023-04-24T20:20:33.928Z,99614.87
2023-04-24T20:23:01.644Z,99613.35
2023-04-24T20:25:28.684Z,99617.69
2023-04-24T20:27:55.943Z,99616.33
2023-04-24T20:30:22.672Z,99620.27
2023-04-24T20:32:49.827Z,99624.61
2023-04-24T20:35:16.920Z,99624.39
2023-04-24T20:37:43.742Z,99621.77
2023-04-24T20:40:13.768Z,99619.81
2023-04-24T20:42:40.599Z,99621.62
2023-04-24T20:45:08.044Z,99624.58
2023-04-24T20:47:36.168Z,99620.63
2023-04-24T20:50:05.838Z,99614.69
2023-04-24T20:52:32.726Z,99610.11
2023-04-24T20:54:59.576Z,99609.83
2023-04-24T20:57:26.466Z,99613.41
2023-04-24T20:59:53.904Z,99604.83
2023-04-24T21:02:20.720Z,99607.23
2023-04-24T21:04:47.752Z,99611.84
2023-04-24T21:07:15.208Z,99613.27
2023-04-24T21:09:41.817Z,99606.52
2023-04-24T21:12:09.061Z,99609.26
2023-04-24T21:14:35.992Z,99608.13
2023-04-24T21:17:03.483Z,99604.65
2023-04-24T21:19:31.624Z,99601.48
2023-04-24T21:21:58.528Z,99605.68
2023-04-24T21:24:25.308Z,99606.52
2023-04-24T21:26:52.105Z,99610.52
2023-04-24T21:29:18.627Z,99612.27
2023-04-24T21:31:45.658Z,99602.35
2023-04-24T21:34:12.851Z,99602.45
2023-04-24T21:36:39.795Z,99601.80
2023-04-24T21:39:06.504Z,99594.64
2023-04-24T21:41:33.536Z,99593.75
2023-04-24T21:44:00.157Z,99595.79
2023-04-24T21:46:26.878Z,99589.73
2023-04-24T21:48:53.727Z,99588.80
2023-04-24T21:51:20.463Z,99592.83
2023-04-24T21:53:47.647Z,99588.75
2023-04-24T21:56:14.453Z,99585.11
2023-04-24T21:58:41.172Z,99582.46
2023-04-24T22:01:08.831Z,99581.90
2023-04-24T22:03:35.845Z,99585.55
2023-04-24T22:06:02.879Z,99588.59
2023-04-24T22:08:32.000Z,99586.78
2023-04-24T22:10:58.927Z,99591.67
2023-04-24T22:13:25.733Z,99594.24
2023-04-24T22:15:52.828Z,99592.63
2023-04-24T22:18:19.667Z,99594.05
2023-04-24T22:20:48.732Z,99591.56
2023-04-24T22:23:15.861Z,99590.15
2023-04-24T22:25:42.684Z,99584.55
2023-04-24T22:28:10.172Z,99580.90
2023-04-24T22:30:37.146Z,99578.23
2023-04-24T22:33:04.565Z,99576.12
2023-04-24T22:35:32.410Z,99574.70
2023-04-24T22:37:59.080Z,99572.34
2023-04-24T22:40:28.240Z,99568.79
2023-04-24T22:42:55.288Z,99565.27
2023-04-24T22:45:25.634Z,99564.05
2023-04-24T22:47:53.277Z,99563.00
2023-04-24T22:50:20.099Z,99561.14
2023-04-24T22:52:47.184Z,99558.41
2023-04-24T22:55:14.250Z,99556.05
2023-04-24T22:57:41.250Z,99556.30
2023-04-24T23:00:10.476Z,99555.58
2023-04-24T23:02:39.396Z,99553.44
2023-04-24T23:05:06.924Z,99554.77
2023-04-24T23:07:35.065Z,99551.13
2023-04-24T23:10:01.735Z,99550.52
2023-04-24T23:12:29.001Z,99545.50
2023-04-24T23:14:55.958Z,99541.55
2023-04-24T23:17:22.584Z,99538.45
2023-04-24T23:19:50.743Z,99539.86
2023-04-24T23:22:20.105Z,99540.19
2023-04-24T23:24:48.150Z,99536.70
2023-04-24T23:27:15.044Z,99536.28
2023-04-24T23:29:41.875Z,99538.62
2023-04-24T23:32:09.702Z,99540.70
2023-04-24T23:34:38.738Z,99541.05
2023-04-24T23:37:06.109Z,99541.11
2023-04-24T23:39:32.994Z,99539.52
2023-04-24T23:42:02.079Z,99536.52
2023-04-24T23:44:29.751Z,99529.40
2023-04-24T23:46:56.879Z,99525.89
2023-04-24T23:49:23.585Z,99524.74
2023-04-24T23:51:50.204Z,99522.40
2023-04-24T23:54:16.881Z,99517.27
2023-04-24T23:56:43.575Z,99515.13
2023-04-24T23:59:10.441Z,99511.75
